| Date | Time | Temp. (oF) | Dew Point (oF) | Rel. Hum. (%) | Press. (in.) | Wind Dir. | Wind Speed (mph) | Hourly Rainfall (in.) |
|
|---|---|---|---|---|---|---|---|---|---|
| 1 | 11/15 | 00:00 | 45 | 36 | 71 | 30.24 | SW | 0 | 0.00 |
| 2 | 11/14 | 23:00 | 46 | 35 | 67 | 30.24 | SW | 0 | 0.00 |
| 3 | 11/14 | 22:00 | 49 | 36 | 61 | 30.24 | SW | 1 | 0.00 |
| 4 | 11/14 | 21:00 | 50 | 36 | 59 | 30.25 | SW | 1 | 0.00 |
| 5 | 11/14 | 20:00 | 52 | 38 | 59 | 30.25 | S | 4 | 0.00 |
| 6 | 11/14 | 19:00 | 49 | 36 | 62 | 30.24 | SSW | 1 | 0.00 |
| 7 | 11/14 | 18:00 | 54 | 36 | 52 | 30.22 | S | 0 | 0.00 |
| 8 | 11/14 | 17:00 | 59 | 37 | 45 | 30.21 | S | 2 | 0.00 |
| 9 | 11/14 | 16:00 | 63 | 37 | 39 | 30.20 | S | 2 | 0.00 |
| 10 | 11/14 | 15:00 | 63 | 37 | 39 | 30.21 | SSW | 2 | 0.00 |
| 11 | 11/14 | 14:00 | 62 | 39 | 43 | 30.24 | ESE | 1 | 0.00 |
| 12 | 11/14 | 13:00 | 59 | 39 | 49 | 30.27 | WSW | 1 | 0.00 |
| 13 | 11/14 | 12:00 | 55 | 39 | 57 | 30.31 | SSE | 3 | 0.00 |
| 14 | 11/14 | 11:00 | 51 | 40 | 66 | 30.34 | S | 2 | 0.00 |
| 15 | 11/14 | 10:00 | 47 | 40 | 77 | 30.37 | WNW | 3 | 0.00 |
| 16 | 11/14 | 09:00 | 39 | 39 | 100 | 30.38 | S | 2 | 0.00 |
| 17 | 11/14 | 08:00 | 32 | 32 | 100 | 30.39 | W | 0 | 0.00 |
| 18 | 11/14 | 07:00 | 30 | 30 | 100 | 30.39 | SE | 0 | 0.00 |
| 19 | 11/14 | 06:00 | 31 | 31 | 100 | 30.39 | S | 1 | 0.00 |
| 20 | 11/14 | 05:00 | 33 | 32 | 100 | 30.39 | W | 1 | 0.00 |
| 21 | 11/14 | 04:00 | 32 | 31 | 97 | 30.39 | S | 2 | 0.00 |
| 22 | 11/14 | 03:00 | 33 | 32 | 97 | 30.40 | S | 4 | 0.00 |
| 23 | 11/14 | 02:00 | 31 | 28 | 91 | 30.41 | S | 1 | 0.00 |
| 24 | 11/14 | 01:00 | 33 | 29 | 87 | 30.42 | SE | 0 | 0.00 |